createdAt,value
2023-05-17T06:21:39.891Z,9.06
2023-05-17T06:31:40.068Z,9.20
2023-05-17T06:41:39.915Z,9.23
2023-05-17T06:51:39.870Z,9.98
2023-05-17T07:01:40.236Z,9.48
2023-05-17T07:11:39.988Z,9.14
2023-05-17T07:21:40.073Z,9.21
2023-05-17T07:31:39.919Z,9.67
2023-05-17T07:41:39.999Z,9.27
2023-05-17T07:51:39.874Z,9.90
2023-05-17T08:01:40.142Z,10.12
2023-05-17T08:11:39.952Z,9.51
2023-05-17T08:21:40.161Z,9.44
2023-05-17T08:31:39.942Z,9.69
2023-05-17T08:41:40.098Z,9.68
2023-05-17T08:51:40.338Z,9.60
2023-05-17T09:01:40.417Z,9.88
2023-05-17T09:11:40.577Z,10.41
2023-05-17T09:21:40.557Z,10.91
2023-05-17T09:31:40.529Z,10.56
2023-05-17T09:41:40.680Z,10.93
2023-05-17T09:51:40.540Z,11.44
2023-05-17T10:01:40.502Z,11.27
2023-05-17T10:11:40.592Z,11.26
2023-05-17T10:21:40.429Z,11.78
2023-05-17T10:31:40.406Z,11.39
2023-05-17T10:41:40.371Z,12.30
2023-05-17T10:51:40.424Z,12.39
2023-05-17T11:01:41.786Z,11.65
2023-05-17T11:11:40.358Z,11.82
2023-05-17T11:21:40.640Z,11.44
2023-05-17T11:31:40.589Z,12.07
2023-05-17T11:41:40.660Z,11.45
2023-05-17T11:51:40.521Z,11.97
2023-05-17T12:01:40.368Z,12.27
2023-05-17T12:11:40.572Z,12.01
2023-05-17T12:21:40.504Z,12.84
2023-05-17T12:31:40.364Z,11.57
2023-05-17T12:41:40.768Z,13.04
2023-05-17T12:51:40.491Z,13.01
2023-05-17T13:01:40.472Z,12.68
2023-05-17T13:11:40.542Z,12.23
2023-05-17T13:21:40.609Z,12.96
2023-05-17T13:31:40.788Z,12.40
2023-05-17T13:41:40.642Z,12.93
2023-05-17T13:51:40.591Z,12.95
2023-05-17T14:01:41.480Z,13.36
2023-05-17T14:11:40.541Z,12.39
2023-05-17T14:21:40.581Z,12.83
2023-05-17T14:31:41.692Z,12.29
2023-05-17T14:41:42.850Z,12.63
2023-05-17T14:51:40.596Z,12.78
2023-05-17T15:01:40.545Z,12.23
2023-05-17T15:11:40.707Z,12.95
2023-05-17T15:21:40.577Z,12.99
2023-05-17T15:31:40.527Z,13.49
2023-05-17T15:41:40.605Z,13.53
2023-05-17T15:51:40.777Z,13.30
2023-05-17T16:01:40.833Z,13.17
2023-05-17T16:11:40.695Z,12.74
2023-05-17T16:21:40.654Z,12.95
2023-05-17T16:31:40.650Z,12.51
2023-05-17T16:41:40.907Z,12.20
2023-05-17T16:51:40.779Z,11.53
2023-05-17T17:01:40.663Z,11.68
2023-05-17T17:11:40.698Z,11.46
2023-05-17T17:21:40.748Z,11.18
2023-05-17T17:31:40.810Z,10.74
2023-05-17T17:41:40.899Z,10.73
2023-05-17T17:51:40.972Z,10.73
2023-05-17T18:01:41.024Z,10.35
2023-05-17T18:11:40.881Z,10.16
2023-05-17T18:21:40.835Z,9.98
2023-05-17T18:31:40.749Z,9.61
2023-05-17T18:41:40.885Z,9.35
2023-05-17T18:51:41.132Z,9.06
2023-05-17T19:01:41.209Z,8.71
2023-05-17T19:11:41.375Z,8.44
2023-05-17T19:21:41.561Z,8.10
